sensor_id;sensor_type;location;lat;lon;timestamp;temperature;humidity
790;DHT22;378;48.844;9.156;2023-08-30T00:00:31;14.30;99.90
790;DHT22;378;48.844;9.156;2023-08-30T00:02:58;14.20;99.90
790;DHT22;378;48.844;9.156;2023-08-30T00:05:25;14.20;99.90
790;DHT22;378;48.844;9.156;2023-08-30T00:07:53;14.20;99.90
790;DHT22;378;48.844;9.156;2023-08-30T00:10:21;14.20;99.90
790;DHT22;378;48.844;9.156;2023-08-30T00:12:48;14.30;99.90
790;DHT22;378;48.844;9.156;2023-08-30T00:15:15;14.30;99.90
790;DHT22;378;48.844;9.156;2023-08-30T00:17:42;14.30;99.90
790;DHT22;378;48.844;9.156;2023-08-30T00:20:09;14.30;99.90
790;DHT22;378;48.844;9.156;2023-08-30T00:22:37;14.30;99.90
790;DHT22;378;48.844;9.156;2023-08-30T00:25:05;14.30;99.90
790;DHT22;378;48.844;9.156;2023-08-30T00:27:33;14.30;99.90
790;DHT22;378;48.844;9.156;2023-08-30T00:30:00;14.30;99.90
790;DHT22;378;48.844;9.156;2023-08-30T00:32:27;14.30;99.90
790;DHT22;378;48.844;9.156;2023-08-30T00:34:54;14.30;99.90
790;DHT22;378;48.844;9.156;2023-08-30T00:37:20;14.30;99.90
790;DHT22;378;48.844;9.156;2023-08-30T00:39:47;14.30;99.90
790;DHT22;378;48.844;9.156;2023-08-30T00:42:14;14.30;99.90
790;DHT22;378;48.844;9.156;2023-08-30T00:44:42;14.30;99.90
790;DHT22;378;48.844;9.156;2023-08-30T00:47:09;14.20;99.90
790;DHT22;378;48.844;9.156;2023-08-30T00:49:36;14.20;99.90
790;DHT22;378;48.844;9.156;2023-08-30T00:52:05;14.20;99.90
790;DHT22;378;48.844;9.156;2023-08-30T00:54:32;14.10;99.90
790;DHT22;378;48.844;9.156;2023-08-30T00:57:00;14.00;99.90
790;DHT22;378;48.844;9.156;2023-08-30T00:59:56;14.00;99.90
790;DHT22;378;48.844;9.156;2023-08-30T01:02:23;14.00;99.90
790;DHT22;378;48.844;9.156;2023-08-30T01:04:50;14.00;99.90
790;DHT22;378;48.844;9.156;2023-08-30T01:07:17;14.00;99.90
790;DHT22;378;48.844;9.156;2023-08-30T01:09:44;13.90;99.90
790;DHT22;378;48.844;9.156;2023-08-30T01:12:17;13.90;99.90
790;DHT22;378;48.844;9.156;2023-08-30T01:14:57;13.90;99.90
790;DHT22;378;48.844;9.156;2023-08-30T01:17:26;13.90;99.90
790;DHT22;378;48.844;9.156;2023-08-30T01:20:00;13.90;99.90
790;DHT22;378;48.844;9.156;2023-08-30T01:22:40;14.00;99.90
790;DHT22;378;48.844;9.156;2023-08-30T01:25:17;14.10;99.90
790;DHT22;378;48.844;9.156;2023-08-30T01:27:48;14.10;99.90
790;DHT22;378;48.844;9.156;2023-08-30T01:30:17;14.10;99.90
790;DHT22;378;48.844;9.156;2023-08-30T01:32:46;14.20;99.90
790;DHT22;378;48.844;9.156;2023-08-30T01:35:13;14.30;99.90
790;DHT22;378;48.844;9.156;2023-08-30T01:37:43;14.40;99.90
790;DHT22;378;48.844;9.156;2023-08-30T01:40:11;14.40;99.90
790;DHT22;378;48.844;9.156;2023-08-30T01:42:39;14.40;99.90
790;DHT22;378;48.844;9.156;2023-08-30T01:45:10;14.40;99.90
790;DHT22;378;48.844;9.156;2023-08-30T01:47:39;14.30;99.90
790;DHT22;378;48.844;9.156;2023-08-30T01:50:08;14.30;99.90
790;DHT22;378;48.844;9.156;2023-08-30T01:52:36;14.20;99.90
790;DHT22;378;48.844;9.156;2023-08-30T01:55:03;14.20;99.90
790;DHT22;378;48.844;9.156;2023-08-30T01:57:32;14.20;99.90
790;DHT22;378;48.844;9.156;2023-08-30T01:59:58;14.20;99.90
790;DHT22;378;48.844;9.156;2023-08-30T02:02:29;14.20;99.90
790;DHT22;378;48.844;9.156;2023-08-30T02:04:56;14.10;99.90
790;DHT22;378;48.844;9.156;2023-08-30T02:07:28;14.00;99.90
790;DHT22;378;48.844;9.156;2023-08-30T02:10:00;14.00;99.90
790;DHT22;378;48.844;9.156;2023-08-30T02:12:31;13.90;99.90
790;DHT22;378;48.844;9.156;2023-08-30T02:15:02;13.90;99.90
790;DHT22;378;48.844;9.156;2023-08-30T02:17:30;13.80;99.90
790;DHT22;378;48.844;9.156;2023-08-30T02:19:57;13.80;99.90
790;DHT22;378;48.844;9.156;2023-08-30T02:22:24;13.80;99.90
790;DHT22;378;48.844;9.156;2023-08-30T02:24:52;13.70;99.90
790;DHT22;378;48.844;9.156;2023-08-30T02:27:18;13.70;99.90
790;DHT22;378;48.844;9.156;2023-08-30T02:29:45;13.70;99.90
790;DHT22;378;48.844;9.156;2023-08-30T02:32:12;13.70;99.90
790;DHT22;378;48.844;9.156;2023-08-30T02:34:40;13.70;99.90
790;DHT22;378;48.844;9.156;2023-08-30T02:37:07;13.80;99.90
790;DHT22;378;48.844;9.156;2023-08-30T02:39:35;13.90;99.90
790;DHT22;378;48.844;9.156;2023-08-30T02:42:02;13.80;99.90
790;DHT22;378;48.844;9.156;2023-08-30T02:44:29;13.80;99.90
790;DHT22;378;48.844;9.156;2023-08-30T02:46:56;13.90;99.90
790;DHT22;378;48.844;9.156;2023-08-30T02:49:22;13.90;99.90
790;DHT22;378;48.844;9.156;2023-08-30T02:51:50;13.90;99.90
790;DHT22;378;48.844;9.156;2023-08-30T02:54:17;13.80;99.90
790;DHT22;378;48.844;9.156;2023-08-30T02:56:44;13.70;99.90
790;DHT22;378;48.844;9.156;2023-08-30T02:59:11;13.70;99.90
790;DHT22;378;48.844;9.156;2023-08-30T03:01:38;13.60;99.90
790;DHT22;378;48.844;9.156;2023-08-30T03:04:05;13.60;99.90
790;DHT22;378;48.844;9.156;2023-08-30T03:06:32;13.60;99.90
790;DHT22;378;48.844;9.156;2023-08-30T03:09:01;13.60;99.90
790;DHT22;378;48.844;9.156;2023-08-30T03:11:28;13.60;99.90
790;DHT22;378;48.844;9.156;2023-08-30T03:13:54;13.60;99.90
790;DHT22;378;48.844;9.156;2023-08-30T03:16:21;13.60;99.90
790;DHT22;378;48.844;9.156;2023-08-30T03:18:49;13.60;99.90
790;DHT22;378;48.844;9.156;2023-08-30T03:21:16;13.60;99.90
790;DHT22;378;48.844;9.156;2023-08-30T03:23:43;13.60;99.90
790;DHT22;378;48.844;9.156;2023-08-30T03:26:12;13.60;99.90
790;DHT22;378;48.844;9.156;2023-08-30T03:28:40;13.60;99.90
790;DHT22;378;48.844;9.156;2023-08-30T03:31:14;13.60;99.90
790;DHT22;378;48.844;9.156;2023-08-30T03:33:41;13.50;99.90
790;DHT22;378;48.844;9.156;2023-08-30T03:36:09;13.60;99.90
790;DHT22;378;48.844;9.156;2023-08-30T03:38:36;13.50;99.90
790;DHT22;378;48.844;9.156;2023-08-30T03:41:03;13.60;99.90
790;DHT22;378;48.844;9.156;2023-08-30T03:43:32;13.70;99.90
790;DHT22;378;48.844;9.156;2023-08-30T03:46:00;13.70;99.90
790;DHT22;378;48.844;9.156;2023-08-30T03:48:27;13.80;99.90
790;DHT22;378;48.844;9.156;2023-08-30T03:50:54;13.90;99.90
790;DHT22;378;48.844;9.156;2023-08-30T03:53:21;13.90;99.90
790;DHT22;378;48.844;9.156;2023-08-30T03:55:48;13.90;99.90
790;DHT22;378;48.844;9.156;2023-08-30T03:58:15;13.90;99.90
790;DHT22;378;48.844;9.156;2023-08-30T04:00:43;14.00;99.90
790;DHT22;378;48.844;9.156;2023-08-30T04:03:12;14.00;99.90
790;DHT22;378;48.844;9.156;2023-08-30T04:05:39;13.90;99.90
790;DHT22;378;48.844;9.156;2023-08-30T04:08:07;13.90;99.90
790;DHT22;378;48.844;9.156;2023-08-30T04:10:34;13.90;99.90
790;DHT22;378;48.844;9.156;2023-08-30T04:13:01;13.90;99.90
790;DHT22;378;48.844;9.156;2023-08-30T04:15:28;13.90;99.90
790;DHT22;378;48.844;9.156;2023-08-30T04:17:56;13.90;99.90
790;DHT22;378;48.844;9.156;2023-08-30T04:20:26;13.80;99.90
790;DHT22;378;48.844;9.156;2023-08-30T04:22:53;13.90;99.90
790;DHT22;378;48.844;9.156;2023-08-30T04:25:22;13.90;99.90
790;DHT22;378;48.844;9.156;2023-08-30T04:27:49;13.90;99.90
790;DHT22;378;48.844;9.156;2023-08-30T04:30:16;13.90;99.90
790;DHT22;378;48.844;9.156;2023-08-30T04:32:43;13.90;99.90
790;DHT22;378;48.844;9.156;2023-08-30T04:35:11;13.90;99.90
790;DHT22;378;48.844;9.156;2023-08-30T04:37:38;13.90;99.90
790;DHT22;378;48.844;9.156;2023-08-30T04:40:06;13.90;99.90
790;DHT22;378;48.844;9.156;2023-08-30T04:42:34;14.00;99.90
790;DHT22;378;48.844;9.156;2023-08-30T04:45:01;14.00;99.90
790;DHT22;378;48.844;9.156;2023-08-30T04:47:28;14.10;99.90
790;DHT22;378;48.844;9.156;2023-08-30T04:49:55;14.10;99.90
790;DHT22;378;48.844;9.156;2023-08-30T04:52:24;14.00;99.90
790;DHT22;378;48.844;9.156;2023-08-30T04:54:50;14.10;99.90
790;DHT22;378;48.844;9.156;2023-08-30T04:57:17;14.10;99.90
790;DHT22;378;48.844;9.156;2023-08-30T04:59:45;14.10;99.90
790;DHT22;378;48.844;9.156;2023-08-30T05:02:12;14.20;99.90
790;DHT22;378;48.844;9.156;2023-08-30T05:04:39;14.20;99.90
790;DHT22;378;48.844;9.156;2023-08-30T05:07:06;14.20;99.90
790;DHT22;378;48.844;9.156;2023-08-30T05:09:37;14.20;99.90
790;DHT22;378;48.844;9.156;2023-08-30T05:12:07;14.20;99.90
790;DHT22;378;48.844;9.156;2023-08-30T05:14:34;14.20;99.90
790;DHT22;378;48.844;9.156;2023-08-30T05:17:01;14.20;99.90
790;DHT22;378;48.844;9.156;2023-08-30T05:19:29;14.20;99.90
790;DHT22;378;48.844;9.156;2023-08-30T05:25:50;14.30;99.90
790;DHT22;378;48.844;9.156;2023-08-30T05:28:17;14.30;99.90
790;DHT22;378;48.844;9.156;2023-08-30T05:30:44;14.30;99.90
790;DHT22;378;48.844;9.156;2023-08-30T05:33:11;14.20;99.90
790;DHT22;378;48.844;9.156;2023-08-30T05:35:38;14.30;99.90
790;DHT22;378;48.844;9.156;2023-08-30T05:38:04;14.30;99.90
790;DHT22;378;48.844;9.156;2023-08-30T05:40:31;14.20;99.90
790;DHT22;378;48.844;9.156;2023-08-30T05:43:00;14.30;99.90
790;DHT22;378;48.844;9.156;2023-08-30T05:45:27;14.20;99.90
790;DHT22;378;48.844;9.156;2023-08-30T05:47:53;14.20;99.90
790;DHT22;378;48.844;9.156;2023-08-30T05:50:20;14.20;99.90
790;DHT22;378;48.844;9.156;2023-08-30T05:52:47;14.20;99.90
790;DHT22;378;48.844;9.156;2023-08-30T05:55:14;14.20;99.90
790;DHT22;378;48.844;9.156;2023-08-30T05:57:40;14.20;99.90
790;DHT22;378;48.844;9.156;2023-08-30T06:00:10;14.20;99.90
790;DHT22;378;48.844;9.156;2023-08-30T06:02:38;14.20;99.90
790;DHT22;378;48.844;9.156;2023-08-30T06:05:06;14.20;99.90
790;DHT22;378;48.844;9.156;2023-08-30T06:07:33;14.30;99.90
790;DHT22;378;48.844;9.156;2023-08-30T06:10:00;14.30;99.90
790;DHT22;378;48.844;9.156;2023-08-30T06:12:26;14.30;99.90
790;DHT22;378;48.844;9.156;2023-08-30T06:14:53;14.30;99.90
790;DHT22;378;48.844;9.156;2023-08-30T06:17:21;14.40;99.90
790;DHT22;378;48.844;9.156;2023-08-30T06:19:48;14.40;99.90
790;DHT22;378;48.844;9.156;2023-08-30T06:22:15;14.50;99.90
790;DHT22;378;48.844;9.156;2023-08-30T06:24:42;14.60;99.90
790;DHT22;378;48.844;9.156;2023-08-30T06:27:09;14.60;99.90
790;DHT22;378;48.844;9.156;2023-08-30T06:29:35;14.60;99.90
790;DHT22;378;48.844;9.156;2023-08-30T06:32:03;14.70;99.90
790;DHT22;378;48.844;9.156;2023-08-30T06:34:31;14.70;99.90
790;DHT22;378;48.844;9.156;2023-08-30T06:36:58;14.70;99.90
790;DHT22;378;48.844;9.156;2023-08-30T06:39:25;14.60;99.90
790;DHT22;378;48.844;9.156;2023-08-30T06:41:52;14.50;99.90
790;DHT22;378;48.844;9.156;2023-08-30T06:44:18;14.50;99.90
790;DHT22;378;48.844;9.156;2023-08-30T06:46:48;14.60;99.90
790;DHT22;378;48.844;9.156;2023-08-30T06:49:15;14.70;99.90
790;DHT22;378;48.844;9.156;2023-08-30T06:51:43;14.70;99.90
790;DHT22;378;48.844;9.156;2023-08-30T06:54:10;14.70;99.90
790;DHT22;378;48.844;9.156;2023-08-30T06:56:37;14.70;99.90
790;DHT22;378;48.844;9.156;2023-08-30T06:59:03;14.80;99.90
790;DHT22;378;48.844;9.156;2023-08-30T07:01:30;14.80;99.90
790;DHT22;378;48.844;9.156;2023-08-30T07:03:57;14.80;99.90
790;DHT22;378;48.844;9.156;2023-08-30T07:06:24;14.90;99.90
790;DHT22;378;48.844;9.156;2023-08-30T07:08:56;15.00;99.90
790;DHT22;378;48.844;9.156;2023-08-30T07:11:23;14.90;99.90
790;DHT22;378;48.844;9.156;2023-08-30T07:13:50;14.90;99.90
790;DHT22;378;48.844;9.156;2023-08-30T07:16:17;14.90;99.90
790;DHT22;378;48.844;9.156;2023-08-30T07:18:43;15.00;99.90
790;DHT22;378;48.844;9.156;2023-08-30T07:21:10;15.10;99.90
790;DHT22;378;48.844;9.156;2023-08-30T07:23:37;15.10;99.90
790;DHT22;378;48.844;9.156;2023-08-30T07:26:05;15.20;99.90
790;DHT22;378;48.844;9.156;2023-08-30T07:28:32;15.20;99.90
790;DHT22;378;48.844;9.156;2023-08-30T07:31:02;15.20;99.90
790;DHT22;378;48.844;9.156;2023-08-30T07:33:30;15.20;99.90
790;DHT22;378;48.844;9.156;2023-08-30T07:35:56;15.30;99.90
790;DHT22;378;48.844;9.156;2023-08-30T07:38:23;15.30;99.90
790;DHT22;378;48.844;9.156;2023-08-30T07:40:50;15.30;99.90
790;DHT22;378;48.844;9.156;2023-08-30T07:43:18;15.30;99.90
790;DHT22;378;48.844;9.156;2023-08-30T07:45:45;15.40;99.90
790;DHT22;378;48.844;9.156;2023-08-30T07:48:12;15.40;99.90
790;DHT22;378;48.844;9.156;2023-08-30T07:50:39;15.40;99.90
790;DHT22;378;48.844;9.156;2023-08-30T07:53:06;15.50;99.90
790;DHT22;378;48.844;9.156;2023-08-30T07:55:33;15.50;99.90
790;DHT22;378;48.844;9.156;2023-08-30T07:57:59;15.50;99.90
790;DHT22;378;48.844;9.156;2023-08-30T08:00:28;15.50;99.90
790;DHT22;378;48.844;9.156;2023-08-30T08:02:55;15.60;99.90
790;DHT22;378;48.844;9.156;2023-08-30T08:05:21;15.60;99.90
790;DHT22;378;48.844;9.156;2023-08-30T08:07:51;15.70;99.90
790;DHT22;378;48.844;9.156;2023-08-30T08:10:18;15.70;99.90
790;DHT22;378;48.844;9.156;2023-08-30T08:12:45;15.80;99.90
790;DHT22;378;48.844;9.156;2023-08-30T08:15:12;15.70;99.90
790;DHT22;378;48.844;9.156;2023-08-30T08:17:40;15.80;99.90
790;DHT22;378;48.844;9.156;2023-08-30T08:20:07;15.80;99.90
790;DHT22;378;48.844;9.156;2023-08-30T08:22:34;15.90;99.90
790;DHT22;378;48.844;9.156;2023-08-30T08:25:01;15.80;99.90
790;DHT22;378;48.844;9.156;2023-08-30T08:27:31;15.90;99.90
790;DHT22;378;48.844;9.156;2023-08-30T08:29:57;15.70;99.90
790;DHT22;378;48.844;9.156;2023-08-30T08:32:24;15.80;99.90
790;DHT22;378;48.844;9.156;2023-08-30T08:34:52;15.80;99.90
790;DHT22;378;48.844;9.156;2023-08-30T08:37:19;15.80;99.90
790;DHT22;378;48.844;9.156;2023-08-30T08:39:47;15.90;99.90
790;DHT22;378;48.844;9.156;2023-08-30T08:42:17;15.90;99.90
790;DHT22;378;48.844;9.156;2023-08-30T08:44:46;16.00;99.90
790;DHT22;378;48.844;9.156;2023-08-30T08:47:14;16.00;99.90
790;DHT22;378;48.844;9.156;2023-08-30T08:49:42;16.10;99.90
790;DHT22;378;48.844;9.156;2023-08-30T08:52:11;16.10;99.90
790;DHT22;378;48.844;9.156;2023-08-30T08:54:39;16.20;99.90
790;DHT22;378;48.844;9.156;2023-08-30T08:57:07;16.10;99.90
790;DHT22;378;48.844;9.156;2023-08-30T08:59:34;16.10;99.90
790;DHT22;378;48.844;9.156;2023-08-30T09:02:02;16.10;99.90
790;DHT22;378;48.844;9.156;2023-08-30T09:04:30;16.20;99.90
790;DHT22;378;48.844;9.156;2023-08-30T09:06:59;16.30;99.90
790;DHT22;378;48.844;9.156;2023-08-30T09:09:27;16.30;99.90
790;DHT22;378;48.844;9.156;2023-08-30T09:11:54;16.30;99.90
790;DHT22;378;48.844;9.156;2023-08-30T09:14:21;16.20;99.90
790;DHT22;378;48.844;9.156;2023-08-30T09:16:54;16.30;99.90
790;DHT22;378;48.844;9.156;2023-08-30T09:19:21;16.40;99.90
790;DHT22;378;48.844;9.156;2023-08-30T09:21:51;16.50;99.90
790;DHT22;378;48.844;9.156;2023-08-30T09:24:18;16.60;99.90
790;DHT22;378;48.844;9.156;2023-08-30T09:26:49;16.70;99.90
790;DHT22;378;48.844;9.156;2023-08-30T09:29:17;16.70;99.90
790;DHT22;378;48.844;9.156;2023-08-30T09:31:44;16.80;99.90
790;DHT22;378;48.844;9.156;2023-08-30T09:34:11;16.80;99.90
790;DHT22;378;48.844;9.156;2023-08-30T09:36:39;16.80;99.90
790;DHT22;378;48.844;9.156;2023-08-30T09:39:07;16.70;99.90
790;DHT22;378;48.844;9.156;2023-08-30T09:41:35;16.80;99.90
790;DHT22;378;48.844;9.156;2023-08-30T09:44:09;16.90;99.90
790;DHT22;378;48.844;9.156;2023-08-30T09:46:43;17.10;99.90
790;DHT22;378;48.844;9.156;2023-08-30T09:49:10;17.20;99.90
790;DHT22;378;48.844;9.156;2023-08-30T09:51:39;17.30;99.90
790;DHT22;378;48.844;9.156;2023-08-30T09:54:13;17.40;99.90
790;DHT22;378;48.844;9.156;2023-08-30T09:56:41;17.40;99.90
790;DHT22;378;48.844;9.156;2023-08-30T09:59:10;17.40;99.90
790;DHT22;378;48.844;9.156;2023-08-30T10:01:37;17.40;99.90
790;DHT22;378;48.844;9.156;2023-08-30T10:04:06;17.50;99.90
790;DHT22;378;48.844;9.156;2023-08-30T10:06:34;17.60;99.90
790;DHT22;378;48.844;9.156;2023-08-30T10:09:02;17.70;99.90
790;DHT22;378;48.844;9.156;2023-08-30T10:11:31;17.80;99.90
790;DHT22;378;48.844;9.156;2023-08-30T10:13:59;17.90;99.90
790;DHT22;378;48.844;9.156;2023-08-30T10:16:32;17.90;99.90
790;DHT22;378;48.844;9.156;2023-08-30T10:19:03;17.80;99.90
790;DHT22;378;48.844;9.156;2023-08-30T10:21:35;17.90;99.90
790;DHT22;378;48.844;9.156;2023-08-30T10:24:05;18.00;99.90
790;DHT22;378;48.844;9.156;2023-08-30T10:26:33;18.10;99.90
790;DHT22;378;48.844;9.156;2023-08-30T10:29:01;18.20;99.90
790;DHT22;378;48.844;9.156;2023-08-30T10:31:30;18.20;99.90
790;DHT22;378;48.844;9.156;2023-08-30T10:33:57;18.30;99.90
790;DHT22;378;48.844;9.156;2023-08-30T10:36:27;18.40;99.90
790;DHT22;378;48.844;9.156;2023-08-30T10:42:30;18.50;99.90
790;DHT22;378;48.844;9.156;2023-08-30T10:56:14;18.60;99.90
790;DHT22;378;48.844;9.156;2023-08-30T11:57:04;17.50;99.90
790;DHT22;378;48.844;9.156;2023-08-30T11:59:35;16.10;99.90
790;DHT22;378;48.844;9.156;2023-08-30T12:02:02;16.10;99.90
790;DHT22;378;48.844;9.156;2023-08-30T12:04:29;15.80;99.90
790;DHT22;378;48.844;9.156;2023-08-30T12:06:56;15.70;99.90
790;DHT22;378;48.844;9.156;2023-08-30T12:09:23;15.60;99.90
790;DHT22;378;48.844;9.156;2023-08-30T12:11:50;15.40;99.90
790;DHT22;378;48.844;9.156;2023-08-30T12:14:18;15.30;99.90
790;DHT22;378;48.844;9.156;2023-08-30T12:16:45;15.30;99.90
790;DHT22;378;48.844;9.156;2023-08-30T12:19:14;15.30;99.90
790;DHT22;378;48.844;9.156;2023-08-30T12:21:43;15.10;99.90
790;DHT22;378;48.844;9.156;2023-08-30T12:24:10;15.10;99.90
790;DHT22;378;48.844;9.156;2023-08-30T12:26:37;15.00;99.90
790;DHT22;378;48.844;9.156;2023-08-30T12:29:04;15.00;99.90
790;DHT22;378;48.844;9.156;2023-08-30T12:31:33;15.10;99.90
790;DHT22;378;48.844;9.156;2023-08-30T12:34:00;15.20;99.90
790;DHT22;378;48.844;9.156;2023-08-30T12:36:27;15.20;99.90
790;DHT22;378;48.844;9.156;2023-08-30T12:38:53;15.10;99.90
790;DHT22;378;48.844;9.156;2023-08-30T12:41:20;15.30;99.90
790;DHT22;378;48.844;9.156;2023-08-30T12:43:49;15.40;99.90
790;DHT22;378;48.844;9.156;2023-08-30T12:46:16;15.40;99.90
790;DHT22;378;48.844;9.156;2023-08-30T12:48:44;15.30;99.90
790;DHT22;378;48.844;9.156;2023-08-30T12:51:11;15.40;99.90
790;DHT22;378;48.844;9.156;2023-08-30T12:53:40;15.50;99.90
790;DHT22;378;48.844;9.156;2023-08-30T12:56:07;15.70;99.90
790;DHT22;378;48.844;9.156;2023-08-30T12:58:33;15.80;99.90
790;DHT22;378;48.844;9.156;2023-08-30T13:01:00;16.00;99.90
790;DHT22;378;48.844;9.156;2023-08-30T13:03:28;16.10;99.90
790;DHT22;378;48.844;9.156;2023-08-30T13:05:56;16.20;99.90
790;DHT22;378;48.844;9.156;2023-08-30T13:08:24;16.30;99.90
790;DHT22;378;48.844;9.156;2023-08-30T13:10:50;16.40;99.90
790;DHT22;378;48.844;9.156;2023-08-30T13:13:17;16.50;99.90
790;DHT22;378;48.844;9.156;2023-08-30T13:15:44;16.60;99.90
790;DHT22;378;48.844;9.156;2023-08-30T13:18:11;16.60;99.90
790;DHT22;378;48.844;9.156;2023-08-30T13:20:38;16.80;99.90
790;DHT22;378;48.844;9.156;2023-08-30T13:23:07;16.90;99.90
790;DHT22;378;48.844;9.156;2023-08-30T13:25:34;17.00;99.90
790;DHT22;378;48.844;9.156;2023-08-30T13:28:00;17.00;99.90
790;DHT22;378;48.844;9.156;2023-08-30T13:30:27;17.20;99.90
790;DHT22;378;48.844;9.156;2023-08-30T13:32:54;17.30;99.90
790;DHT22;378;48.844;9.156;2023-08-30T13:35:21;17.30;99.90
790;DHT22;378;48.844;9.156;2023-08-30T13:37:48;17.40;99.90
790;DHT22;378;48.844;9.156;2023-08-30T13:40:17;17.40;99.90
790;DHT22;378;48.844;9.156;2023-08-30T13:42:44;17.60;99.90
790;DHT22;378;48.844;9.156;2023-08-30T13:45:10;17.70;99.90
790;DHT22;378;48.844;9.156;2023-08-30T13:47:39;17.80;99.90
790;DHT22;378;48.844;9.156;2023-08-30T13:50:06;17.90;99.90
790;DHT22;378;48.844;9.156;2023-08-30T13:52:33;18.10;99.90
790;DHT22;378;48.844;9.156;2023-08-30T13:55:00;18.20;99.90
790;DHT22;378;48.844;9.156;2023-08-30T13:57:28;18.30;99.90
790;DHT22;378;48.844;9.156;2023-08-30T13:59:55;18.40;99.90
790;DHT22;378;48.844;9.156;2023-08-30T14:02:22;18.50;99.90
790;DHT22;378;48.844;9.156;2023-08-30T14:04:50;18.50;99.90
790;DHT22;378;48.844;9.156;2023-08-30T14:07:17;18.40;99.90
790;DHT22;378;48.844;9.156;2023-08-30T14:09:44;18.60;99.90
790;DHT22;378;48.844;9.156;2023-08-30T14:12:11;18.80;99.90
790;DHT22;378;48.844;9.156;2023-08-30T14:14:39;18.70;99.90
790;DHT22;378;48.844;9.156;2023-08-30T14:17:06;18.70;99.90
790;DHT22;378;48.844;9.156;2023-08-30T14:19:33;18.70;99.90
790;DHT22;378;48.844;9.156;2023-08-30T14:22:01;18.70;99.90
790;DHT22;378;48.844;9.156;2023-08-30T14:24:29;18.70;99.90
790;DHT22;378;48.844;9.156;2023-08-30T14:26:56;18.70;99.90
790;DHT22;378;48.844;9.156;2023-08-30T14:29:23;18.70;99.90
790;DHT22;378;48.844;9.156;2023-08-30T14:31:51;18.60;99.90
790;DHT22;378;48.844;9.156;2023-08-30T14:34:19;18.60;99.90
790;DHT22;378;48.844;9.156;2023-08-30T14:36:46;18.50;99.90
790;DHT22;378;48.844;9.156;2023-08-30T14:39:13;18.40;99.90
790;DHT22;378;48.844;9.156;2023-08-30T14:41:40;18.40;99.90
790;DHT22;378;48.844;9.156;2023-08-30T14:44:08;18.30;99.90
790;DHT22;378;48.844;9.156;2023-08-30T14:46:35;18.00;99.90
790;DHT22;378;48.844;9.156;2023-08-30T14:49:03;17.90;99.90
790;DHT22;378;48.844;9.156;2023-08-30T14:51:30;17.70;99.90
790;DHT22;378;48.844;9.156;2023-08-30T14:53:57;17.50;99.90
790;DHT22;378;48.844;9.156;2023-08-30T14:56:24;17.30;99.90
790;DHT22;378;48.844;9.156;2023-08-30T14:58:50;17.20;99.90
790;DHT22;378;48.844;9.156;2023-08-30T15:01:17;16.90;99.90
790;DHT22;378;48.844;9.156;2023-08-30T15:03:44;16.70;99.90
790;DHT22;378;48.844;9.156;2023-08-30T15:06:12;16.60;99.90
790;DHT22;378;48.844;9.156;2023-08-30T15:08:39;16.60;99.90
790;DHT22;378;48.844;9.156;2023-08-30T15:11:08;16.80;99.90
790;DHT22;378;48.844;9.156;2023-08-30T15:13:35;16.90;99.90
790;DHT22;378;48.844;9.156;2023-08-30T15:16:03;17.10;99.90
790;DHT22;378;48.844;9.156;2023-08-30T15:18:30;17.30;99.90
790;DHT22;378;48.844;9.156;2023-08-30T15:20:57;17.40;99.90
790;DHT22;378;48.844;9.156;2023-08-30T15:23:26;17.50;99.90
790;DHT22;378;48.844;9.156;2023-08-30T15:25:53;17.60;99.90
790;DHT22;378;48.844;9.156;2023-08-30T15:28:20;17.70;99.90
790;DHT22;378;48.844;9.156;2023-08-30T15:30:47;18.10;99.90
790;DHT22;378;48.844;9.156;2023-08-30T15:33:17;18.50;99.90
790;DHT22;378;48.844;9.156;2023-08-30T15:35:44;18.50;99.90
790;DHT22;378;48.844;9.156;2023-08-30T15:38:11;18.30;99.90
790;DHT22;378;48.844;9.156;2023-08-30T15:40:40;18.20;99.90
790;DHT22;378;48.844;9.156;2023-08-30T15:43:07;18.10;99.90
790;DHT22;378;48.844;9.156;2023-08-30T15:45:34;18.00;99.90
790;DHT22;378;48.844;9.156;2023-08-30T15:48:01;17.90;99.90
790;DHT22;378;48.844;9.156;2023-08-30T15:50:28;17.80;99.90
790;DHT22;378;48.844;9.156;2023-08-30T15:52:55;17.70;99.90
790;DHT22;378;48.844;9.156;2023-08-30T15:55:25;17.50;99.90
790;DHT22;378;48.844;9.156;2023-08-30T15:57:57;17.40;99.90
790;DHT22;378;48.844;9.156;2023-08-30T16:00:24;17.30;99.90
790;DHT22;378;48.844;9.156;2023-08-30T16:02:53;17.30;99.90
790;DHT22;378;48.844;9.156;2023-08-30T16:05:19;17.20;99.90
790;DHT22;378;48.844;9.156;2023-08-30T16:07:47;17.30;99.90
790;DHT22;378;48.844;9.156;2023-08-30T16:10:14;17.30;99.90
790;DHT22;378;48.844;9.156;2023-08-30T16:12:40;17.30;99.90
790;DHT22;378;48.844;9.156;2023-08-30T16:15:09;17.30;99.90
790;DHT22;378;48.844;9.156;2023-08-30T16:17:36;17.40;99.90
790;DHT22;378;48.844;9.156;2023-08-30T16:20:04;17.50;99.90
790;DHT22;378;48.844;9.156;2023-08-30T16:22:31;17.60;99.90
790;DHT22;378;48.844;9.156;2023-08-30T16:24:59;17.60;99.90
790;DHT22;378;48.844;9.156;2023-08-30T16:27:26;18.50;99.90
790;DHT22;378;48.844;9.156;2023-08-30T16:29:52;19.90;99.90
790;DHT22;378;48.844;9.156;2023-08-30T16:32:21;21.30;99.90
790;DHT22;378;48.844;9.156;2023-08-30T16:34:47;22.30;99.90
790;DHT22;378;48.844;9.156;2023-08-30T16:37:15;22.50;99.90
790;DHT22;378;48.844;9.156;2023-08-30T16:39:42;22.40;99.90
790;DHT22;378;48.844;9.156;2023-08-30T16:42:09;22.00;99.90
790;DHT22;378;48.844;9.156;2023-08-30T16:44:36;21.50;99.90
790;DHT22;378;48.844;9.156;2023-08-30T16:47:03;21.00;99.90
790;DHT22;378;48.844;9.156;2023-08-30T16:49:32;20.40;99.90
790;DHT22;378;48.844;9.156;2023-08-30T16:51:59;19.80;99.90
790;DHT22;378;48.844;9.156;2023-08-30T16:54:25;19.30;99.90
790;DHT22;378;48.844;9.156;2023-08-30T16:56:52;19.10;99.90
790;DHT22;378;48.844;9.156;2023-08-30T16:59:19;18.80;99.90
790;DHT22;378;48.844;9.156;2023-08-30T17:01:46;18.60;99.90
790;DHT22;378;48.844;9.156;2023-08-30T17:04:13;18.40;99.90
790;DHT22;378;48.844;9.156;2023-08-30T17:06:42;18.20;99.90
790;DHT22;378;48.844;9.156;2023-08-30T17:09:09;18.00;99.90
790;DHT22;378;48.844;9.156;2023-08-30T17:11:36;17.90;99.90
790;DHT22;378;48.844;9.156;2023-08-30T17:14:04;17.80;99.90
790;DHT22;378;48.844;9.156;2023-08-30T17:16:31;17.70;99.90
790;DHT22;378;48.844;9.156;2023-08-30T17:18:58;17.70;99.90
790;DHT22;378;48.844;9.156;2023-08-30T17:21:25;17.60;99.90
790;DHT22;378;48.844;9.156;2023-08-30T17:23:53;17.50;99.90
790;DHT22;378;48.844;9.156;2023-08-30T17:26:20;17.40;99.90
790;DHT22;378;48.844;9.156;2023-08-30T17:28:47;17.40;99.90
790;DHT22;378;48.844;9.156;2023-08-30T17:31:14;17.30;99.90
790;DHT22;378;48.844;9.156;2023-08-30T17:33:41;17.30;99.90
790;DHT22;378;48.844;9.156;2023-08-30T17:36:08;17.20;99.90
790;DHT22;378;48.844;9.156;2023-08-30T17:38:36;17.20;99.90
790;DHT22;378;48.844;9.156;2023-08-30T17:41:09;17.20;99.90
790;DHT22;378;48.844;9.156;2023-08-30T17:43:36;17.10;99.90
790;DHT22;378;48.844;9.156;2023-08-30T17:46:03;17.10;99.90
790;DHT22;378;48.844;9.156;2023-08-30T17:48:30;17.00;99.90
790;DHT22;378;48.844;9.156;2023-08-30T17:50:57;17.00;99.90
790;DHT22;378;48.844;9.156;2023-08-30T17:53:23;17.00;99.90